createdAt,value
2022-09-23T00:01:14.736Z,99775.44
2022-09-23T00:03:45.613Z,99771.81
2022-09-23T00:06:15.832Z,99772.81
2022-09-23T00:08:44.104Z,99765.25
2022-09-23T00:11:19.693Z,99764.75
2022-09-23T00:13:49.005Z,99771.13
2022-09-23T00:16:24.646Z,99766.84
2022-09-23T00:18:51.635Z,99764.53
2022-09-23T00:21:19.946Z,99759.31
2022-09-23T00:23:47.503Z,99762.94
2022-09-23T00:26:17.230Z,99769.94
2022-09-23T00:28:44.164Z,99774.22
2022-09-23T00:31:23.489Z,99770.47
2022-09-23T00:33:59.011Z,99775.41
2022-09-23T00:36:27.210Z,99765.25
2022-09-23T00:38:55.118Z,99775.44
2022-09-23T00:41:22.324Z,99773.47
2022-09-23T00:43:53.018Z,99770.53
2022-09-23T00:46:29.778Z,99766.44
2022-09-23T00:49:28.217Z,99769.72
2022-09-23T00:52:06.857Z,99772.69
2022-09-23T00:54:34.216Z,99769.75
2022-09-23T00:57:01.780Z,99777.94
2022-09-23T00:59:29.257Z,99778.47
2022-09-23T01:01:59.142Z,99760.06
2022-09-23T01:04:28.042Z,99776.31
2022-09-23T01:06:54.952Z,99779.75
2022-09-23T01:09:23.223Z,99789.94
2022-09-23T01:12:02.214Z,99770.06
2022-09-23T01:14:45.977Z,99777.78
2022-09-23T01:17:19.495Z,99779.13
2022-09-23T01:20:14.515Z,99776.66
2022-09-23T01:22:41.485Z,99770.09
2022-09-23T01:25:14.236Z,99775.00
2022-09-23T01:27:53.310Z,99773.22
2022-09-23T01:30:48.518Z,99777.78
2022-09-23T01:33:51.600Z,99772.69
2022-09-23T01:36:21.235Z,99775.16
2022-09-23T01:38:50.933Z,99780.56
2022-09-23T01:41:55.571Z,99790.06
2022-09-23T01:44:27.632Z,99792.53
2022-09-23T01:47:00.821Z,99776.28
2022-09-23T01:49:52.261Z,99790.25
2022-09-23T01:52:44.767Z,99795.31
2022-09-23T01:55:39.223Z,99788.91
2022-09-23T01:58:12.484Z,99791.22
2022-09-23T02:00:48.189Z,99791.22
2022-09-23T02:03:27.576Z,99785.16
2022-09-23T02:05:58.406Z,99791.22
2022-09-23T02:08:45.665Z,99785.16
2022-09-23T02:11:15.487Z,99783.63
2022-09-23T02:14:07.805Z,99783.66
2022-09-23T02:16:43.177Z,99793.50
2022-09-23T02:19:18.559Z,99789.53
2022-09-23T02:21:53.076Z,99788.56
2022-09-23T02:24:22.740Z,99787.22
2022-09-23T02:26:56.053Z,99785.94
2022-09-23T02:29:33.807Z,99785.78
2022-09-23T02:32:35.361Z,99798.41
2022-09-23T02:35:18.689Z,99790.00
2022-09-23T02:38:07.156Z,99793.09
2022-09-23T02:40:47.381Z,99783.28
2022-09-23T02:43:31.496Z,99785.22
2022-09-23T02:45:58.813Z,99784.59
2022-09-23T02:48:34.322Z,99782.78
2022-09-23T02:51:03.695Z,99796.56
2022-09-23T02:53:35.107Z,99789.50
2022-09-23T02:56:12.874Z,99784.28
2022-09-23T02:58:39.859Z,99784.75
2022-09-23T03:01:11.113Z,99780.69
2022-09-23T03:04:21.586Z,99782.50
2022-09-23T03:07:21.932Z,99782.34
2022-09-23T03:09:59.016Z,99786.28
2022-09-23T03:12:47.894Z,99784.31
2022-09-23T03:15:23.353Z,99787.63
2022-09-23T03:18:01.443Z,99790.06
2022-09-23T03:20:45.345Z,99790.56
2022-09-23T03:23:15.381Z,99793.84
2022-09-23T03:25:47.511Z,99784.34
2022-09-23T03:28:17.698Z,99779.75
2022-09-23T03:30:45.366Z,99783.56
2022-09-23T03:33:16.892Z,99794.53
2022-09-23T03:36:15.993Z,99788.13
2022-09-23T03:38:51.637Z,99793.22
2022-09-23T03:41:30.269Z,99789.31
2022-09-23T03:44:00.001Z,99790.78
2022-09-23T03:46:28.680Z,99787.50
2022-09-23T03:49:19.985Z,99789.13
2022-09-23T03:51:47.066Z,99776.81
2022-09-23T03:54:14.000Z,99778.81
2022-09-23T03:56:40.953Z,99781.09
2022-09-23T03:59:08.033Z,99786.84
2022-09-23T04:01:34.941Z,99787.69
2022-09-23T04:04:04.506Z,99785.72
2022-09-23T04:06:31.424Z,99782.94
2022-09-23T04:08:59.030Z,99780.63
2022-09-23T04:11:25.932Z,99777.19
2022-09-23T04:13:52.840Z,99771.78
2022-09-23T04:16:19.765Z,99767.34
2022-09-23T04:18:46.867Z,99762.06
2022-09-23T04:21:13.785Z,99771.13
2022-09-23T04:23:41.384Z,99759.63
2022-09-23T04:26:08.478Z,99759.94
2022-09-23T04:28:35.492Z,99766.34
2022-09-23T04:31:07.173Z,99767.31
2022-09-23T04:33:34.549Z,99758.47
2022-09-23T04:36:01.817Z,99754.19
2022-09-23T04:38:28.905Z,99751.25
2022-09-23T04:40:55.881Z,99747.66
2022-09-23T04:43:23.765Z,99744.69
2022-09-23T04:46:01.293Z,99739.44
2022-09-23T04:48:28.889Z,99735.66
2022-09-23T04:51:03.263Z,99735.00
2022-09-23T04:53:31.509Z,99730.22
2022-09-23T04:56:05.737Z,99733.53
2022-09-23T04:58:33.789Z,99741.41
2022-09-23T05:01:12.237Z,99744.03
2022-09-23T05:03:39.556Z,99755.84
2022-09-23T05:06:07.885Z,99753.38
2022-09-23T05:08:35.322Z,99748.44
2022-09-23T05:11:07.481Z,99749.25
2022-09-23T05:13:35.434Z,99751.69
2022-09-23T05:16:08.383Z,99754.44
2022-09-23T05:18:36.180Z,99752.28
2022-09-23T05:21:03.760Z,99748.28
2022-09-23T05:23:30.783Z,99757.97
2022-09-23T05:26:04.054Z,99753.72
2022-09-23T05:28:33.095Z,99741.78
2022-09-23T05:31:17.151Z,99746.16
2022-09-23T05:33:49.252Z,99756.56
2022-09-23T05:36:17.908Z,99750.06
2022-09-23T05:38:45.574Z,99741.47
2022-09-23T05:41:14.064Z,99750.25
2022-09-23T05:43:41.448Z,99748.81
2022-09-23T05:46:16.412Z,99750.72
2022-09-23T05:48:45.945Z,99744.22
2022-09-23T05:51:27.498Z,99736.22
2022-09-23T05:53:58.457Z,99747.75
2022-09-23T05:56:27.656Z,99744.97
2022-09-23T05:58:56.424Z,99740.69
2022-09-23T06:01:25.798Z,99741.88
2022-09-23T06:03:54.515Z,99741.97
2022-09-23T06:06:26.505Z,99749.00
2022-09-23T06:08:53.510Z,99757.34
2022-09-23T06:11:21.670Z,99740.25
2022-09-23T06:13:49.445Z,99748.25
2022-09-23T06:16:16.705Z,99747.75
2022-09-23T06:18:45.798Z,99745.50
2022-09-23T06:21:17.209Z,99743.94
2022-09-23T06:23:45.431Z,99741.25
2022-09-23T06:26:14.773Z,99743.06
2022-09-23T06:28:43.135Z,99737.59
2022-09-23T06:31:15.670Z,99745.41
2022-09-23T06:33:44.993Z,99753.50
2022-09-23T06:36:22.669Z,99773.63
2022-09-23T06:38:57.909Z,99781.03
2022-09-23T06:41:24.795Z,99762.56
2022-09-23T06:43:52.644Z,99749.31
2022-09-23T06:46:21.339Z,99762.06
2022-09-23T06:48:49.251Z,99751.97
2022-09-23T06:51:19.382Z,99756.75
2022-09-23T06:53:48.257Z,99746.53
2022-09-23T06:56:16.803Z,99739.88
2022-09-23T06:58:43.810Z,99747.28
2022-09-23T07:01:16.161Z,99757.69
2022-09-23T07:03:44.781Z,99751.81
2022-09-23T07:06:12.082Z,99742.03
2022-09-23T07:08:42.680Z,99746.06
2022-09-23T07:11:12.355Z,99744.34
2022-09-23T07:13:41.297Z,99748.59
2022-09-23T07:16:09.120Z,99744.78
2022-09-23T07:18:37.476Z,99741.97
2022-09-23T07:21:07.173Z,99743.59
2022-09-23T07:23:34.305Z,99746.78
2022-09-23T07:26:01.440Z,99755.44
2022-09-23T07:28:29.246Z,99749.41
2022-09-23T07:31:00.288Z,99751.25
2022-09-23T07:33:32.961Z,99749.34
2022-09-23T07:36:32.909Z,99753.59
2022-09-23T07:39:03.985Z,99740.59
2022-09-23T07:41:33.169Z,99746.31
2022-09-23T07:44:01.270Z,99745.97
2022-09-23T07:46:31.757Z,99749.88
2022-09-23T07:48:59.244Z,99747.88
2022-09-23T07:51:36.045Z,99755.16
2022-09-23T07:54:08.019Z,99743.56
2022-09-23T07:56:36.341Z,99741.78
2022-09-23T07:59:04.797Z,99740.44
2022-09-23T08:01:37.293Z,99737.56
2022-09-23T08:04:13.058Z,99725.91
2022-09-23T08:06:45.133Z,99732.31
2022-09-23T08:09:12.806Z,99739.25
2022-09-23T08:11:42.230Z,99738.81
2022-09-23T08:14:11.363Z,99727.69
2022-09-23T08:16:38.715Z,99725.75
2022-09-23T08:19:06.329Z,99724.28
2022-09-23T08:21:33.785Z,99726.00
2022-09-23T08:24:00.831Z,99724.34
2022-09-23T08:26:28.941Z,99722.06
2022-09-23T08:28:56.611Z,99719.66
2022-09-23T08:31:24.082Z,99716.16
2022-09-23T08:33:58.544Z,99715.66
2022-09-23T08:36:26.019Z,99719.28
2022-09-23T08:38:53.253Z,99717.09
2022-09-23T08:41:26.331Z,99725.03
2022-09-23T08:44:26.796Z,99720.84
2022-09-23T08:47:28.086Z,99722.53
2022-09-23T08:50:06.657Z,99714.19
2022-09-23T08:52:49.343Z,99723.63
2022-09-23T08:55:17.660Z,99733.00
2022-09-23T08:58:26.195Z,99739.59
2022-09-23T09:01:00.199Z,99745.59
2022-09-23T09:03:35.154Z,99742.88
2022-09-23T09:06:03.135Z,99746.13
2022-09-23T09:08:35.268Z,99747.31
2022-09-23T09:11:03.357Z,99746.78
2022-09-23T09:13:34.683Z,99740.59
2022-09-23T09:16:36.670Z,99729.75
2022-09-23T09:19:19.151Z,99718.56
2022-09-23T09:21:50.684Z,99719.38
2022-09-23T09:24:23.051Z,99707.47
2022-09-23T09:26:50.414Z,99708.81
2022-09-23T09:29:41.618Z,99698.13
2022-09-23T09:32:47.450Z,99697.19
2022-09-23T09:35:56.213Z,99692.97
2022-09-23T09:38:24.202Z,99688.88
2022-09-23T09:40:51.263Z,99679.31
2022-09-23T09:43:25.241Z,99681.97
2022-09-23T09:46:23.212Z,99690.31
2022-09-23T09:48:59.871Z,99691.13
2022-09-23T09:51:29.091Z,99697.34
2022-09-23T09:54:17.291Z,99697.94
2022-09-23T09:56:45.163Z,99702.22
2022-09-23T09:59:18.537Z,99696.94
2022-09-23T10:01:46.254Z,99671.91
2022-09-23T10:04:33.702Z,99698.19
2022-09-23T10:07:24.563Z,99688.31
2022-09-23T10:09:51.790Z,99699.38
2022-09-23T10:12:24.589Z,99691.66
2022-09-23T10:15:01.175Z,99699.56
2022-09-23T10:17:34.462Z,99702.44
2022-09-23T10:20:07.944Z,99707.28
2022-09-23T10:22:42.907Z,99699.47
2022-09-23T10:25:17.186Z,99707.44
2022-09-23T10:27:45.636Z,99693.50
2022-09-23T10:30:15.331Z,99697.03
2022-09-23T10:32:45.767Z,99685.31
2022-09-23T10:35:21.180Z,99702.03
2022-09-23T10:37:54.910Z,99706.41
2022-09-23T10:40:43.363Z,99701.22
2022-09-23T10:43:44.073Z,99694.56
2022-09-23T10:46:39.710Z,99679.69
2022-09-23T10:49:36.669Z,99684.31
2022-09-23T10:52:22.358Z,99678.09
2022-09-23T10:55:04.337Z,99672.44
2022-09-23T10:57:46.527Z,99679.75
2022-09-23T11:00:14.753Z,99673.28
2022-09-23T11:02:57.046Z,99668.19
2022-09-23T11:05:52.141Z,99666.56
2022-09-23T11:08:37.437Z,99666.00
2022-09-23T11:11:19.934Z,99658.59
2022-09-23T11:13:59.140Z,99656.63
2022-09-23T11:16:53.900Z,99649.75
2022-09-23T11:19:34.265Z,99650.72
2022-09-23T11:22:42.363Z,99634.59
2022-09-23T11:25:40.769Z,99625.78
2022-09-23T11:28:33.216Z,99632.00
2022-09-23T11:31:19.791Z,99635.22
2022-09-23T11:34:08.323Z,99638.72
2022-09-23T11:36:41.616Z,99640.88
2022-09-23T11:39:17.019Z,99641.38
2022-09-23T11:41:45.147Z,99631.88
2022-09-23T11:44:21.666Z,99635.81
2022-09-23T11:47:01.650Z,99642.69
2022-09-23T11:49:40.270Z,99634.28
2022-09-23T11:52:10.696Z,99630.72
2022-09-23T11:54:46.470Z,99634.22
2022-09-23T11:57:24.389Z,99630.56
2022-09-23T12:00:16.700Z,99642.78
2022-09-23T12:03:32.283Z,99649.13
2022-09-23T12:06:18.658Z,99637.91
2022-09-23T12:08:45.581Z,99629.88
2022-09-23T12:11:37.447Z,99619.13
2022-09-23T12:14:19.485Z,99624.38
2022-09-23T12:17:16.841Z,99638.72
2022-09-23T12:19:47.664Z,99640.47
2022-09-23T12:22:52.782Z,99638.59
2022-09-23T12:25:52.328Z,99626.00
2022-09-23T12:28:36.225Z,99624.00
2022-09-23T12:31:08.629Z,99635.47
2022-09-23T12:33:36.979Z,99631.66
2022-09-23T12:36:05.519Z,99625.56
2022-09-23T12:38:37.699Z,99622.97
2022-09-23T12:41:26.527Z,99613.25
2022-09-23T12:43:57.658Z,99616.13
2022-09-23T12:46:27.578Z,99604.31
2022-09-23T12:49:03.325Z,99600.44
2022-09-23T12:51:35.695Z,99590.88
2022-09-23T12:54:05.346Z,99593.22
2022-09-23T12:56:38.822Z,99590.78
2022-09-23T12:59:29.361Z,99595.72
2022-09-23T13:01:57.679Z,99587.81
2022-09-23T13:05:02.494Z,99589.59
2022-09-23T13:07:34.285Z,99594.09
2022-09-23T13:10:18.395Z,99590.66
2022-09-23T13:12:46.780Z,99594.63
2022-09-23T13:15:26.865Z,99588.47
2022-09-23T13:17:53.853Z,99590.41
2022-09-23T13:20:20.794Z,99584.03
2022-09-23T13:22:53.689Z,99589.06
2022-09-23T13:25:29.599Z,99579.63
2022-09-23T13:28:01.226Z,99579.03
2022-09-23T13:30:28.612Z,99576.94
2022-09-23T14:12:09.327Z,99565.22
2022-09-23T14:14:39.517Z,99571.09
2022-09-23T14:17:08.827Z,99563.56
2022-09-23T14:19:36.979Z,99558.66
2022-09-23T14:22:04.217Z,99552.00
2022-09-23T14:24:34.146Z,99549.53
2022-09-23T14:27:13.076Z,99548.47
2022-09-23T14:29:43.528Z,99544.06
2022-09-23T14:32:18.079Z,99532.25
2022-09-23T14:34:49.827Z,99541.13
2022-09-23T14:37:58.707Z,99541.88
2022-09-23T14:40:29.434Z,99539.41
2022-09-23T14:43:06.905Z,99548.66
2022-09-23T14:45:36.521Z,99550.66
2022-09-23T14:48:13.185Z,99539.97
2022-09-23T14:50:50.121Z,99539.47
2022-09-23T14:53:22.957Z,99532.63
2022-09-23T14:55:53.015Z,99541.69
2022-09-23T14:58:25.766Z,99537.13
2022-09-23T15:00:59.551Z,99538.13
2022-09-23T15:03:28.542Z,99532.22
2022-09-23T15:06:08.884Z,99525.84
2022-09-23T15:08:36.122Z,99516.06
2022-09-23T15:11:08.222Z,99509.50
2022-09-23T15:13:42.020Z,99513.75
2022-09-23T15:16:09.422Z,99519.53
2022-09-23T15:18:38.879Z,99520.88
2022-09-23T15:21:15.898Z,99516.91
2022-09-23T15:23:48.850Z,99525.19
2022-09-23T15:26:20.270Z,99517.34
2022-09-23T15:28:48.298Z,99521.84
2022-09-23T15:31:19.964Z,99524.03
2022-09-23T15:33:48.394Z,99528.13
2022-09-23T15:36:21.708Z,99530.97
2022-09-23T15:38:49.370Z,99535.75
2022-09-23T15:41:17.406Z,99542.81
2022-09-23T15:43:44.347Z,99532.31
2022-09-23T15:46:19.420Z,99540.19
2022-09-23T15:49:02.193Z,99539.19
2022-09-23T15:51:29.237Z,99533.28
2022-09-23T15:53:56.489Z,99535.63
2022-09-23T15:56:24.878Z,99527.41
2022-09-23T15:58:51.822Z,99527.91
2022-09-23T16:01:28.920Z,99527.09
2022-09-23T16:03:56.649Z,99520.88
2022-09-23T16:06:24.550Z,99523.03
2022-09-23T16:08:52.563Z,99529.41
2022-09-23T16:11:25.140Z,99520.91
2022-09-23T16:13:52.464Z,99522.19
2022-09-23T16:16:22.857Z,99529.25
2022-09-23T16:18:53.312Z,99524.63
2022-09-23T16:21:22.418Z,99513.50
2022-09-23T16:23:51.348Z,99519.56
2022-09-23T16:26:22.789Z,99514.47
2022-09-23T16:28:51.758Z,99514.97
2022-09-23T16:31:19.744Z,99513.81
2022-09-23T16:33:48.233Z,99511.19
2022-09-23T16:36:27.047Z,99514.97
2022-09-23T16:38:57.958Z,99508.56
2022-09-23T16:41:26.438Z,99516.94
2022-09-23T16:43:53.807Z,99510.88
2022-09-23T16:46:21.356Z,99507.59
2022-09-23T16:48:52.582Z,99487.13
2022-09-23T16:51:34.069Z,99501.84
2022-09-23T16:54:00.982Z,99484.84
2022-09-23T16:56:29.352Z,99491.41
2022-09-23T16:58:57.351Z,99484.53
2022-09-23T17:01:45.100Z,99481.75
2022-09-23T17:04:13.559Z,99485.22
2022-09-23T17:06:50.740Z,99479.66
2022-09-23T17:09:19.985Z,99476.38
2022-09-23T17:11:53.073Z,99487.69
2022-09-23T17:14:20.776Z,99474.56
2022-09-23T17:16:47.651Z,99472.94
2022-09-23T17:19:14.773Z,99473.59
2022-09-23T17:21:41.919Z,99474.75
2022-09-23T17:24:10.017Z,99466.88
2022-09-23T17:26:38.361Z,99462.59
2022-09-23T17:29:05.760Z,99457.50
2022-09-23T17:31:32.989Z,99458.03
2022-09-23T17:34:00.921Z,99454.88
2022-09-23T17:36:28.309Z,99450.13
2022-09-23T17:38:56.016Z,99444.88
2022-09-23T17:41:23.009Z,99446.06
2022-09-23T17:44:00.618Z,99436.53
2022-09-23T17:46:30.289Z,99442.28
2022-09-23T17:48:57.473Z,99448.19
2022-09-23T17:51:25.629Z,99447.16
2022-09-23T17:53:52.694Z,99444.88
2022-09-23T17:56:29.914Z,99447.19
2022-09-23T17:59:01.074Z,99448.16
2022-09-23T18:01:28.636Z,99444.88
2022-09-23T18:03:57.434Z,99440.28
2022-09-23T18:06:26.856Z,99444.06
2022-09-23T18:08:56.018Z,99442.91
2022-09-23T18:11:28.755Z,99442.41
2022-09-23T18:14:16.026Z,99434.84
2022-09-23T18:16:44.808Z,99426.81
2022-09-23T18:19:14.362Z,99423.38
2022-09-23T18:21:44.007Z,99433.06
2022-09-23T18:26:59.978Z,99417.31
2022-09-23T18:29:27.162Z,99422.75
2022-09-23T18:31:54.384Z,99423.88
2022-09-23T18:34:21.640Z,99417.66
2022-09-23T18:36:48.569Z,99425.19
2022-09-23T18:39:15.550Z,99409.63
2022-09-23T18:41:42.521Z,99409.13
2022-09-23T18:44:09.902Z,99396.50
2022-09-23T18:46:37.170Z,99401.91
2022-09-23T18:49:22.715Z,99404.19
2022-09-23T18:51:55.860Z,99398.13
2022-09-23T18:54:27.977Z,99399.94
2022-09-23T18:56:55.878Z,99394.38
2022-09-23T18:59:28.114Z,99401.56
2022-09-23T19:01:55.894Z,99391.94
2022-09-23T19:04:24.850Z,99389.13
2022-09-23T19:06:52.048Z,99396.00
2022-09-23T19:09:19.988Z,99390.91
2022-09-23T19:11:46.999Z,99380.94
2022-09-23T19:14:14.064Z,99386.69
2022-09-23T19:16:41.655Z,99367.13
2022-09-23T19:19:09.009Z,99367.13
2022-09-23T19:21:36.571Z,99376.69
2022-09-23T19:24:07.097Z,99367.97
2022-09-23T19:26:39.742Z,99377.16
2022-09-23T19:29:09.053Z,99376.19
2022-09-23T19:31:41.277Z,99373.56
2022-09-23T19:34:15.852Z,99362.72
2022-09-23T19:36:45.068Z,99371.25
2022-09-23T19:39:24.008Z,99362.09
2022-09-23T19:41:52.567Z,99362.56
2022-09-23T19:44:20.294Z,99356.38
2022-09-23T19:46:53.652Z,99356.03
2022-09-23T19:49:24.699Z,99350.28
2022-09-23T19:51:52.108Z,99342.06
2022-09-23T19:54:20.775Z,99350.75
2022-09-23T19:56:51.043Z,99343.41
2022-09-23T19:59:19.364Z,99342.75
2022-09-23T20:01:48.362Z,99333.88
2022-09-23T20:04:16.157Z,99324.22
2022-09-23T20:06:43.358Z,99319.31
2022-09-23T20:09:10.283Z,99314.75
2022-09-23T20:11:37.369Z,99315.22
2022-09-23T20:14:06.230Z,99310.97
2022-09-23T20:16:35.737Z,99315.56
2022-09-23T20:19:04.453Z,99310.78
2022-09-23T20:21:33.539Z,99305.19
2022-09-23T20:24:01.310Z,99295.03
2022-09-23T20:26:47.175Z,99298.00
2022-09-23T20:29:14.385Z,99295.19
2022-09-23T20:31:41.696Z,99286.31
2022-09-23T20:34:10.890Z,99287.16
2022-09-23T20:36:40.149Z,99278.28
2022-09-23T20:39:07.373Z,99280.91
2022-09-23T20:41:37.591Z,99276.50
2022-09-23T20:44:08.048Z,99261.91
2022-09-23T20:46:35.948Z,99259.28
2022-09-23T20:49:04.287Z,99261.09
2022-09-23T20:51:33.461Z,99256.38
2022-09-23T20:54:01.176Z,99250.00
2022-09-23T20:56:29.263Z,99248.19
2022-09-23T20:59:04.303Z,99248.88
2022-09-23T21:01:36.658Z,99251.34
2022-09-23T21:04:05.841Z,99247.22
2022-09-23T21:06:35.729Z,99232.78
2022-09-23T21:09:03.562Z,99235.59
2022-09-23T21:11:32.078Z,99237.56
2022-09-23T21:14:00.490Z,99233.16
2022-09-23T21:16:27.795Z,99230.53
2022-09-23T21:18:54.745Z,99221.47
2022-09-23T21:21:22.471Z,99221.31
2022-09-23T21:23:50.892Z,99196.94
2022-09-23T21:26:20.743Z,99210.84
2022-09-23T21:28:50.441Z,99216.56
2022-09-23T21:31:23.374Z,99205.59
2022-09-23T21:33:59.509Z,99204.47
2022-09-23T21:36:28.879Z,99201.50
2022-09-23T21:38:56.393Z,99189.22
2022-09-23T21:41:23.931Z,99193.94
2022-09-23T21:43:51.302Z,99197.09
2022-09-23T21:46:20.544Z,99183.31
2022-09-23T21:48:53.810Z,99181.69
2022-09-23T21:51:24.892Z,99182.34
2022-09-23T21:53:54.602Z,99179.72
2022-09-23T21:56:24.512Z,99180.53
2022-09-23T21:58:54.051Z,99175.63
2022-09-23T22:01:25.059Z,99165.53
2022-09-23T22:04:08.601Z,99166.53
2022-09-23T22:06:38.324Z,99170.94
2022-09-23T22:09:10.573Z,99161.81
2022-09-23T22:11:57.766Z,99156.06
2022-09-23T22:14:26.383Z,99149.09
2022-09-23T22:16:59.709Z,99147.28
2022-09-23T22:19:32.904Z,99146.13
2022-09-23T22:22:00.207Z,99134.69
2022-09-23T22:24:27.232Z,99141.06
2022-09-23T22:26:54.221Z,99129.78
2022-09-23T22:29:39.618Z,99121.28
2022-09-23T22:32:29.862Z,99116.38
2022-09-23T22:34:57.021Z,99112.75
2022-09-23T22:37:30.584Z,99110.13
2022-09-23T22:39:57.561Z,99105.41
2022-09-23T22:42:24.461Z,99098.53
2022-09-23T22:44:52.077Z,99100.34
2022-09-23T22:47:19.964Z,99095.94
2022-09-23T22:49:47.886Z,99095.28
2022-09-23T22:52:16.206Z,99082.88
2022-09-23T22:54:43.396Z,99086.38
2022-09-23T22:57:10.650Z,99077.19
2022-09-23T22:59:37.749Z,99071.47
2022-09-23T23:02:06.657Z,99073.78
2022-09-23T23:04:33.978Z,99072.16
2022-09-23T23:07:00.929Z,99072.97
2022-09-23T23:09:27.825Z,99058.88
2022-09-23T23:11:54.747Z,99056.91
2022-09-23T23:14:21.819Z,99059.34
2022-09-23T23:16:49.399Z,99056.41
2022-09-23T23:19:19.334Z,99051.97
2022-09-23T23:21:46.320Z,99041.69
2022-09-23T23:24:17.318Z,99046.94
2022-09-23T23:26:45.321Z,99035.44
2022-09-23T23:29:14.070Z,99037.63
2022-09-23T23:31:41.546Z,99033.38
2022-09-23T23:34:14.899Z,99022.56
2022-09-23T23:36:42.218Z,99020.28
2022-09-23T23:39:09.449Z,99016.03
2022-09-23T23:41:36.933Z,99010.44
2022-09-23T23:44:05.570Z,99007.81
2022-09-23T23:46:33.106Z,98997.34
2022-09-23T23:49:00.599Z,98990.97
2022-09-23T23:51:28.191Z,98983.91
2022-09-23T23:53:56.023Z,98977.41
2022-09-23T23:56:25.000Z,98978.56
2022-09-23T23:58:59.817Z,98974.19
